Time;durP1;ratioP1;P1;durP2;ratioP2;P2;SDS_P1;SDS_P2;PMS_P1;PMS_P2;Temp;Humidity;BMP_temperature;BMP_pressure;BME280_temperature;BME280_humidity;BME280_pressure;Samples;Min_cycle;Max_cycle;Signal;HPM_P1;HPM_P2
2022/07/09 00:02:09;;;;;;;9.98;7.07;;;;;;;16.02;97.63;102771.75;4958082;28;20183;-68
2022/07/09 00:04:34;;;;;;;8.52;6.53;;;;;;;15.80;97.44;102772.06;4973389;28;20774;-68
2022/07/09 00:07:00;;;;;;;7.85;6.10;;;;;;;15.45;97.81;102773.91;4957039;28;20047;-69
2022/07/09 00:09:25;;;;;;;9.23;6.55;;;;;;;15.36;99.10;102777.13;4964983;28;20046;-68
2022/07/09 00:11:52;;;;;;;13.75;7.40;;;;;;;15.44;99.42;102779.38;4965518;28;20479;-68
2022/07/09 00:14:17;;;;;;;9.43;6.65;;;;;;;15.43;99.44;102772.28;4969638;28;20038;-69
2022/07/09 00:16:43;;;;;;;11.07;6.65;;;;;;;15.50;98.70;102779.06;4959227;28;20801;-69
2022/07/09 00:19:08;;;;;;;9.27;6.55;;;;;;;15.54;98.71;102775.25;4968779;28;20049;-68
2022/07/09 00:21:34;;;;;;;11.68;7.15;;;;;;;15.38;100.00;102780.56;4965062;28;20050;-69
2022/07/09 00:23:59;;;;;;;10.00;7.28;;;;;;;15.35;99.84;102769.97;4975202;28;20038;-70
2022/07/09 00:26:25;;;;;;;10.05;7.50;;;;;;;15.34;100.00;102783.50;4968869;28;20125;-69
2022/07/09 00:28:50;;;;;;;10.05;6.28;;;;;;;14.97;99.73;102775.53;4971101;28;20065;-69
2022/07/09 00:31:16;;;;;;;9.70;6.20;;;;;;;14.76;99.69;102774.81;4955464;28;20119;-70
2022/07/09 00:33:41;;;;;;;9.70;6.45;;;;;;;14.85;100.00;102786.88;4956322;28;20105;-70
2022/07/09 00:36:07;;;;;;;9.60;6.63;;;;;;;14.62;99.26;102789.84;4955271;28;20089;-69
2022/07/09 00:38:32;;;;;;;8.65;6.88;;;;;;;14.50;99.68;102786.81;4971893;28;20042;-68
2022/07/09 00:40:58;;;;;;;9.95;7.05;;;;;;;14.71;99.34;102781.34;4970442;28;20050;-68
2022/07/09 00:43:23;;;;;;;8.05;6.25;;;;;;;14.82;100.00;102783.50;4962336;28;20151;-69
2022/07/09 00:45:49;;;;;;;10.93;6.85;;;;;;;14.88;100.00;102778.69;4963770;28;20046;-69
2022/07/09 00:48:15;;;;;;;9.20;7.22;;;;;;;14.91;100.00;102770.47;4969491;28;20046;-69
2022/07/09 00:50:42;;;;;;;10.65;6.97;;;;;;;15.05;99.40;102772.44;4974750;28;20026;-68
2022/07/09 00:53:10;;;;;;;10.27;5.85;;;;;;;15.09;99.87;102773.16;4975073;28;20066;-69
2022/07/09 00:55:37;;;;;;;10.18;6.75;;;;;;;14.93;100.00;102765.88;4965891;28;20069;-68
2022/07/09 00:58:03;;;;;;;8.60;6.45;;;;;;;14.65;98.81;102763.69;4957280;28;20603;-69
2022/07/09 01:00:29;;;;;;;9.95;6.22;;;;;;;14.66;99.49;102761.88;4970922;28;20038;-69
2022/07/09 01:02:55;;;;;;;8.30;6.57;;;;;;;14.87;100.00;102758.13;4958269;28;20042;-69
2022/07/09 01:05:20;;;;;;;10.52;6.93;;;;;;;14.92;100.00;102756.09;4966105;28;20046;-69
2022/07/09 01:07:46;;;;;;;12.20;6.20;;;;;;;15.04;100.00;102754.59;4954561;28;20054;-68
2022/07/09 01:10:12;;;;;;;12.65;7.18;;;;;;;15.00;100.00;102755.69;4967910;28;20046;-69
2022/07/09 01:12:38;;;;;;;8.55;6.80;;;;;;;14.68;100.00;102749.25;4955266;28;20062;-69
2022/07/09 01:15:04;;;;;;;7.68;6.22;;;;;;;14.64;100.00;102756.59;4958050;28;20822;-69
2022/07/09 01:17:37;;;;;;;6.90;4.75;;;;;;;14.57;100.00;102755.19;4964942;28;20165;-68
2022/07/09 01:20:03;;;;;;;9.30;6.60;;;;;;;14.61;100.00;102751.41;4966207;28;20121;-69
2022/07/09 01:22:29;;;;;;;9.52;6.22;;;;;;;14.73;100.00;102750.78;4972972;28;20129;-68
2022/07/09 01:24:55;;;;;;;8.10;5.72;;;;;;;14.79;100.00;102738.84;4972326;28;20030;-69
2022/07/09 01:27:21;;;;;;;11.90;7.35;;;;;;;14.70;100.00;102748.22;4969292;28;20870;-69
2022/07/09 01:29:49;;;;;;;7.70;5.47;;;;;;;14.51;100.00;102744.75;4961014;28;20038;-70
2022/07/09 01:32:16;;;;;;;7.50;5.32;;;;;;;14.34;100.00;102742.84;4969072;28;20081;-69
2022/07/09 01:34:41;;;;;;;5.00;4.05;;;;;;;14.42;100.00;102737.97;4961008;28;20038;-69
2022/07/09 01:37:07;;;;;;;6.80;5.25;;;;;;;14.49;100.00;102736.75;4971438;28;20667;-69
2022/07/09 01:39:32;;;;;;;6.53;5.25;;;;;;;14.57;100.00;102731.00;4966031;28;20038;-69
2022/07/09 01:41:58;;;;;;;7.10;5.68;;;;;;;14.61;100.00;102723.66;4963132;28;20046;-69
2022/07/09 01:44:23;;;;;;;9.73;6.43;;;;;;;14.55;100.00;102724.84;4973197;28;20043;-69
2022/07/09 01:46:49;;;;;;;15.70;7.85;;;;;;;14.62;100.00;102720.91;4960767;28;20038;-69
2022/07/09 01:49:14;;;;;;;13.05;7.53;;;;;;;14.60;100.00;102714.72;4969526;28;20047;-70
2022/07/09 01:51:40;;;;;;;13.20;7.55;;;;;;;14.68;100.00;102714.34;4967428;28;20050;-69
2022/07/09 01:54:05;;;;;;;10.38;7.25;;;;;;;14.63;100.00;102714.59;4963642;28;20065;-69
2022/07/09 01:56:32;;;;;;;15.52;7.47;;;;;;;14.59;100.00;102709.44;4972201;28;20049;-69
2022/07/09 01:58:58;;;;;;;10.88;7.32;;;;;;;14.57;100.00;102704.16;4961289;28;20045;-69
2022/07/09 02:01:23;;;;;;;10.13;7.57;;;;;;;14.60;100.00;102708.50;4968959;28;20774;-68
2022/07/09 02:03:49;;;;;;;11.25;7.00;;;;;;;14.36;100.00;102703.41;4968441;28;20335;-69
2022/07/09 02:06:14;;;;;;;8.15;6.00;;;;;;;14.30;100.00;102702.81;4961487;28;20833;-70
2022/07/09 02:08:40;;;;;;;12.98;7.57;;;;;;;14.14;100.00;102700.88;4973357;28;20054;-68
2022/07/09 02:11:05;;;;;;;12.15;7.28;;;;;;;14.16;100.00;102700.81;4962674;28;20046;-68
2022/07/09 02:13:31;;;;;;;13.02;8.10;;;;;;;14.28;100.00;102700.19;4968149;28;20045;-69
2022/07/09 02:15:56;;;;;;;11.55;7.47;;;;;;;14.38;100.00;102690.75;4969508;28;20145;-70
2022/07/09 02:18:22;;;;;;;12.40;8.20;;;;;;;14.15;100.00;102693.69;4961230;28;20093;-69
2022/07/09 02:20:47;;;;;;;16.92;9.02;;;;;;;13.99;100.00;102688.19;4960433;28;20035;-70
2022/07/09 02:23:13;;;;;;;15.57;8.60;;;;;;;14.19;100.00;102684.56;4965503;28;20081;-69
2022/07/09 02:25:38;;;;;;;12.18;8.35;;;;;;;14.02;100.00;102695.25;4967873;28;20047;-69
2022/07/09 02:28:04;;;;;;;10.35;7.50;;;;;;;13.92;100.00;102703.72;4976722;28;20046;-67
2022/07/09 02:30:30;;;;;;;11.20;7.40;;;;;;;13.89;100.00;102695.81;4976482;28;20106;-69
2022/07/09 02:32:55;;;;;;;13.15;7.13;;;;;;;14.00;100.00;102695.28;4971747;28;20034;-69
2022/07/09 02:35:21;;;;;;;9.45;7.13;;;;;;;14.02;100.00;102695.25;4963277;28;20042;-69
2022/07/09 02:37:46;;;;;;;13.55;8.10;;;;;;;14.15;100.00;102682.97;4976023;28;20072;-69
2022/07/09 02:40:14;;;;;;;12.05;8.02;;;;;;;14.11;100.00;102681.41;4961185;28;20137;-71
2022/07/09 02:42:39;;;;;;;14.68;8.43;;;;;;;14.13;100.00;102680.34;4974694;28;20038;-71
2022/07/09 02:45:05;;;;;;;15.00;10.45;;;;;;;14.04;100.00;102675.44;4969275;28;20045;-71
2022/07/09 02:47:31;;;;;;;16.98;9.88;;;;;;;14.07;100.00;102686.03;4957235;28;20038;-71
2022/07/09 02:49:56;;;;;;;13.30;8.75;;;;;;;13.85;100.00;102693.34;4969268;28;20908;-71
2022/07/09 02:52:22;;;;;;;12.23;8.98;;;;;;;13.86;100.00;102701.34;4975743;28;20054;-70
2022/07/09 02:54:47;;;;;;;18.27;9.23;;;;;;;13.89;100.00;102709.22;4959666;28;20034;-71
2022/07/09 02:57:13;;;;;;;14.40;9.50;;;;;;;13.85;100.00;102704.94;4966423;28;20034;-71
2022/07/09 02:59:38;;;;;;;14.35;9.27;;;;;;;13.65;100.00;102710.38;4955568;28;20137;-71
2022/07/09 03:02:04;;;;;;;12.13;8.15;;;;;;;13.63;100.00;102710.44;4955614;28;20039;-71
2022/07/09 03:04:29;;;;;;;14.73;8.73;;;;;;;13.59;100.00;102716.88;4956073;28;20058;-70
2022/07/09 03:06:55;;;;;;;15.00;8.10;;;;;;;13.39;100.00;102723.16;4971676;28;20059;-71
2022/07/09 03:09:20;;;;;;;12.77;7.88;;;;;;;13.33;100.00;102723.44;4962994;28;20049;-70
2022/07/09 03:11:46;;;;;;;21.15;9.48;;;;;;;13.29;100.00;102720.97;4964850;28;20046;-70
2022/07/09 03:14:11;;;;;;;14.23;9.10;;;;;;;13.36;100.00;102723.31;4955429;28;20046;-70
2022/07/09 03:16:37;;;;;;;19.45;9.77;;;;;;;13.51;100.00;102718.19;4972084;28;20160;-70
2022/07/09 03:19:02;;;;;;;21.83;11.20;;;;;;;13.59;100.00;102721.38;4956240;28;20051;-70
2022/07/09 03:21:27;;;;;;;17.92;11.05;;;;;;;13.72;100.00;102719.88;4962035;28;20116;-72
2022/07/09 03:23:53;;;;;;;14.90;9.20;;;;;;;13.83;100.00;102720.25;4966217;28;20060;-71
2022/07/09 03:26:18;;;;;;;16.08;10.30;;;;;;;13.79;100.00;102724.00;4959677;28;20047;-71
2022/07/09 03:28:44;;;;;;;17.33;9.50;;;;;;;13.95;100.00;102716.09;4966366;28;20045;-73
2022/07/09 03:31:09;;;;;;;15.75;9.90;;;;;;;14.00;100.00;102709.56;4974588;28;20042;-71
2022/07/09 03:33:35;;;;;;;14.73;9.27;;;;;;;13.94;100.00;102707.19;4975084;28;20093;-71
2022/07/09 03:36:00;;;;;;;15.93;9.98;;;;;;;13.97;100.00;102707.06;4973679;28;20053;-71
2022/07/09 03:38:26;;;;;;;17.38;9.65;;;;;;;14.12;100.00;102712.63;4973746;28;20113;-71
2022/07/09 03:40:52;;;;;;;13.70;9.70;;;;;;;14.27;100.00;102701.16;4970500;28;20104;-70
2022/07/09 03:43:18;;;;;;;16.55;10.05;;;;;;;14.33;100.00;102698.16;4961257;28;20631;-71
2022/07/09 03:45:44;;;;;;;17.45;10.52;;;;;;;14.35;100.00;102692.72;4963978;28;20043;-71
2022/07/09 03:48:09;;;;;;;17.38;10.98;;;;;;;14.45;100.00;102691.31;4968384;28;20081;-71
2022/07/09 03:50:34;;;;;;;18.65;10.50;;;;;;;14.42;100.00;102686.97;4973125;28;20042;-70
2022/07/09 03:53:00;;;;;;;24.60;11.45;;;;;;;14.39;100.00;102692.47;4958718;28;20046;-71
2022/07/09 03:55:25;;;;;;;16.60;10.40;;;;;;;14.28;100.00;102702.03;4972737;28;20038;-70
2022/07/09 03:57:51;;;;;;;21.45;9.95;;;;;;;14.34;100.00;102704.41;4963098;28;20054;-70
2022/07/09 04:00:16;;;;;;;17.10;10.38;;;;;;;14.43;100.00;102704.81;4969433;28;20050;-70
2022/07/09 04:02:43;;;;;;;18.00;10.75;;;;;;;14.63;100.00;102700.28;4956020;28;20035;-71
2022/07/09 04:05:09;;;;;;;26.80;12.80;;;;;;;14.64;100.00;102699.34;4960645;28;20871;-71
2022/07/09 04:07:35;;;;;;;21.23;12.35;;;;;;;14.79;100.00;102701.25;4965320;28;20047;-70
2022/07/09 04:10:01;;;;;;;20.67;12.88;;;;;;;14.90;100.00;102704.25;4967699;28;20050;-70
2022/07/09 04:12:26;;;;;;;25.48;13.27;;;;;;;14.98;100.00;102698.47;4959097;28;20050;-71
2022/07/09 04:14:52;;;;;;;29.30;14.23;;;;;;;15.07;100.00;102699.81;4970217;28;20038;-71
2022/07/09 04:17:17;;;;;;;25.42;15.13;;;;;;;15.20;100.00;102699.06;4959033;28;20121;-71
2022/07/09 04:19:43;;;;;;;18.27;11.23;;;;;;;15.28;100.00;102704.94;4973490;28;20100;-70
2022/07/09 04:22:08;;;;;;;21.45;10.80;;;;;;;15.33;100.00;102703.81;4971473;28;20061;-71
2022/07/09 04:24:34;;;;;;;20.45;12.60;;;;;;;15.38;100.00;102693.69;4971892;28;20050;-70
2022/07/09 04:27:00;;;;;;;23.85;13.95;;;;;;;15.50;100.00;102693.00;4972592;28;20053;-69
2022/07/09 04:29:25;;;;;;;27.38;13.50;;;;;;;15.60;100.00;102696.06;4971193;28;20034;-70
2022/07/09 04:31:50;;;;;;;25.23;14.50;;;;;;;15.67;100.00;102697.50;4974008;28;20148;-71
2022/07/09 04:34:16;;;;;;;19.48;12.35;;;;;;;15.63;100.00;102693.22;4958004;28;20089;-70
2022/07/09 04:36:41;;;;;;;25.20;12.88;;;;;;;15.83;100.00;102676.00;4969850;28;20042;-70
2022/07/09 04:39:07;;;;;;;22.17;14.23;;;;;;;15.80;100.00;102677.03;4959108;28;20038;-71
2022/07/09 04:41:32;;;;;;;26.05;13.40;;;;;;;15.88;100.00;102679.31;4964357;28;20066;-70
2022/07/09 04:43:58;;;;;;;26.58;13.18;;;;;;;15.92;100.00;102679.03;4965952;28;20038;-70
2022/07/09 04:46:25;;;;;;;22.55;11.55;;;;;;;15.99;100.00;102682.25;4957107;28;20054;-70
2022/07/09 04:48:50;;;;;;;16.08;10.93;;;;;;;16.01;100.00;102672.25;4969705;28;20817;-70
2022/07/09 04:51:15;;;;;;;23.33;12.73;;;;;;;16.15;100.00;102677.72;4953603;28;20039;-70
2022/07/09 04:53:41;;;;;;;20.27;12.23;;;;;;;16.42;100.00;102671.72;4954368;28;20093;-70
2022/07/09 04:56:07;;;;;;;23.17;13.75;;;;;;;16.52;100.00;102668.38;4966918;28;20112;-70
2022/07/09 04:58:33;;;;;;;20.88;12.98;;;;;;;16.34;100.00;102663.19;4966366;28;20035;-69
2022/07/09 05:00:58;;;;;;;17.45;12.10;;;;;;;16.55;100.00;102664.63;4970849;28;20117;-70
2022/07/09 05:03:24;;;;;;;22.92;12.98;;;;;;;16.71;100.00;102668.16;4959199;28;20034;-70
2022/07/09 05:05:50;;;;;;;20.67;12.52;;;;;;;16.60;100.00;102675.13;4971523;28;20043;-70
2022/07/09 05:08:16;;;;;;;23.42;13.00;;;;;;;16.54;100.00;102660.19;4959650;28;20356;-70
2022/07/09 05:10:42;;;;;;;23.70;13.95;;;;;;;16.63;100.00;102664.19;4963759;28;20045;-71
2022/07/09 05:13:08;;;;;;;23.75;13.48;;;;;;;16.72;100.00;102659.16;4963051;28;20042;-70
2022/07/09 05:15:33;;;;;;;22.02;13.35;;;;;;;16.68;100.00;102654.84;4961224;28;20046;-69
2022/07/09 05:17:59;;;;;;;26.05;14.02;;;;;;;16.80;100.00;102651.44;4961092;28;20035;-70
2022/07/09 05:20:26;;;;;;;23.75;14.35;;;;;;;17.29;100.00;102655.66;4960071;28;20031;-70
2022/07/09 05:22:51;;;;;;;20.02;13.00;;;;;;;17.50;100.00;102642.63;4968231;28;20227;-70
2022/07/09 05:25:17;;;;;;;26.33;14.40;;;;;;;18.01;99.21;102642.94;4964143;28;20038;-69
2022/07/09 05:27:44;;;;;;;23.17;13.20;;;;;;;18.20;97.54;102640.75;4963105;28;20065;-70
2022/07/09 05:30:10;;;;;;;29.27;13.77;;;;;;;18.60;95.47;102643.44;4967849;28;20110;-70
2022/07/09 05:32:35;;;;;;;22.17;13.07;;;;;;;19.04;92.38;102651.22;4963010;28;20046;-70
2022/07/09 05:35:01;;;;;;;20.35;12.45;;;;;;;19.59;90.23;102652.72;4961501;28;20050;-71
2022/07/09 05:37:27;;;;;;;24.38;13.25;;;;;;;19.53;89.15;102654.94;4961129;28;20039;-69
2022/07/09 05:39:52;;;;;;;22.35;11.98;;;;;;;20.01;86.49;102638.81;4961747;28;20034;-70
2022/07/09 05:42:17;;;;;;;20.58;11.15;;;;;;;20.39;85.88;102635.94;4959083;28;20031;-69
2022/07/09 05:44:43;;;;;;;18.58;10.73;;;;;;;21.01;81.65;102641.06;4961651;28;20863;-69
2022/07/09 05:47:08;;;;;;;19.33;11.02;;;;;;;21.61;80.05;102649.84;4962964;28;20488;-71
2022/07/09 05:49:34;;;;;;;15.55;10.48;;;;;;;21.02;81.22;102653.63;4963437;28;20038;-71
2022/07/09 05:51:59;;;;;;;17.17;11.02;;;;;;;20.43;83.14;102653.66;4963482;28;20041;-70
2022/07/09 05:54:25;;;;;;;19.92;10.50;;;;;;;20.03;85.60;102656.69;4965362;28;20065;-70
2022/07/09 05:56:51;;;;;;;17.63;12.45;;;;;;;20.34;85.45;102657.97;4960583;28;20034;-70
2022/07/09 05:59:16;;;;;;;21.70;11.95;;;;;;;20.98;82.90;102648.56;4960782;28;20484;-70
2022/07/09 06:01:42;;;;;;;24.30;12.35;;;;;;;20.61;81.57;102654.16;4963470;28;20035;-71
2022/07/09 06:04:08;;;;;;;21.15;11.52;;;;;;;20.54;81.77;102651.06;4961593;28;20076;-69
2022/07/09 06:06:35;;;;;;;21.40;12.45;;;;;;;20.79;81.26;102651.88;4961957;28;20142;-68
2022/07/09 06:09:00;;;;;;;21.67;12.93;;;;;;;20.50;81.82;102663.09;4961979;28;20070;-69
2022/07/09 06:11:26;;;;;;;21.33;11.75;;;;;;;20.41;83.83;102661.94;4967412;28;20149;-68
2022/07/09 06:13:52;;;;;;;17.52;11.48;;;;;;;20.69;83.10;102658.00;4961503;28;20032;-69
2022/07/09 06:16:17;;;;;;;16.58;11.27;;;;;;;20.56;82.73;102651.78;4961138;28;20109;-69
2022/07/09 06:18:42;;;;;;;21.63;10.55;;;;;;;21.14;80.36;102660.81;4960503;28;20035;-68
2022/07/09 06:21:08;;;;;;;15.43;10.85;;;;;;;21.81;78.36;102651.81;4966619;28;20211;-69
2022/07/09 06:23:33;;;;;;;20.88;9.60;;;;;;;21.66;77.03;102648.50;4966144;28;20133;-68
2022/07/09 06:25:59;;;;;;;15.95;9.95;;;;;;;21.16;78.98;102645.25;4962636;28;20042;-69
2022/07/09 06:28:24;;;;;;;17.00;9.65;;;;;;;20.88;79.44;102645.69;4965210;28;20038;-70
2022/07/09 06:30:50;;;;;;;14.82;9.15;;;;;;;20.98;80.23;102645.84;4968066;28;20755;-69
2022/07/09 06:33:16;;;;;;;18.63;9.57;;;;;;;21.51;79.96;102648.88;4966787;28;20050;-70
2022/07/09 06:35:41;;;;;;;14.90;9.27;;;;;;;22.01;76.74;102649.28;4970364;28;20038;-71
2022/07/09 06:38:07;;;;;;;16.52;10.02;;;;;;;22.19;75.43;102639.66;4962867;28;20038;-69
2022/07/09 06:40:34;;;;;;;16.63;9.85;;;;;;;21.29;78.37;102636.16;4965576;28;20053;-69
2022/07/09 06:42:59;;;;;;;14.38;9.32;;;;;;;21.13;77.95;102650.91;4967834;28;20034;-71
2022/07/09 06:45:32;;;;;;;16.75;9.45;;;;;;;21.24;78.58;102644.66;4965182;28;21029;-71
2022/07/09 06:47:58;;;;;;;11.95;9.02;;;;;;;21.11;78.78;102639.34;4965343;28;20050;-70
2022/07/09 06:50:23;;;;;;;17.15;9.10;;;;;;;21.82;77.48;102641.81;4963139;28;20733;-70
2022/07/09 06:52:49;;;;;;;13.68;8.80;;;;;;;22.01;77.38;102641.16;4965941;28;20035;-70
2022/07/09 06:55:15;;;;;;;16.75;9.23;;;;;;;21.46;76.87;102641.09;4963416;28;20081;-71
2022/07/09 06:57:40;;;;;;;15.82;8.77;;;;;;;21.86;76.11;102643.28;4963345;28;20035;-70
2022/07/09 07:00:06;;;;;;;12.50;7.80;;;;;;;22.13;73.72;102642.84;4964518;28;20171;-70
2022/07/09 07:02:32;;;;;;;13.93;9.02;;;;;;;21.63;75.90;102646.00;4964133;28;20060;-70
2022/07/09 07:04:57;;;;;;;11.93;9.23;;;;;;;21.91;76.02;102646.47;4962581;28;20221;-70
2022/07/09 07:07:23;;;;;;;17.00;9.05;;;;;;;21.71;75.87;102643.53;4964315;28;20077;-71
2022/07/09 07:09:49;;;;;;;12.32;7.97;;;;;;;22.21;74.70;102634.94;4966019;28;20045;-69
2022/07/09 07:12:14;;;;;;;12.25;8.07;;;;;;;22.85;74.71;102640.28;4967577;28;20046;-70
2022/07/09 07:14:40;;;;;;;12.15;8.55;;;;;;;22.31;74.58;102637.75;4964615;28;20043;-70
2022/07/09 07:17:05;;;;;;;13.75;8.95;;;;;;;23.49;70.72;102641.91;4965392;28;20027;-71
2022/07/09 07:19:31;;;;;;;12.77;7.80;;;;;;;23.53;69.30;102646.09;4961638;28;20042;-71
2022/07/09 07:21:56;;;;;;;13.40;8.35;;;;;;;23.63;69.74;102654.28;4960009;28;20035;-70
2022/07/09 07:24:22;;;;;;;15.05;9.07;;;;;;;22.99;71.92;102641.81;4965144;28;20038;-69
2022/07/09 07:26:47;;;;;;;14.32;8.85;;;;;;;23.10;71.54;102639.03;4970183;28;20031;-69
2022/07/09 07:29:13;;;;;;;12.27;7.63;;;;;;;23.94;70.56;102631.44;4964712;28;20836;-70
2022/07/09 07:31:38;;;;;;;12.60;7.43;;;;;;;24.92;67.66;102622.25;4964638;28;20346;-69
2022/07/09 07:34:04;;;;;;;10.05;7.70;;;;;;;25.16;65.11;102624.53;4965835;28;20046;-69
2022/07/09 07:36:29;;;;;;;11.48;8.50;;;;;;;24.82;66.63;102629.59;4958908;28;20050;-70
2022/07/09 07:38:55;;;;;;;13.23;8.77;;;;;;;25.77;64.70;102631.28;4972286;28;20048;-70
2022/07/09 07:41:21;;;;;;;12.30;8.68;;;;;;;25.66;63.98;102617.81;4961918;28;20053;-68
2022/07/09 07:43:47;;;;;;;16.58;9.52;;;;;;;25.62;64.27;102625.44;4960318;28;20030;-69
2022/07/09 07:46:13;;;;;;;11.57;7.80;;;;;;;26.11;64.10;102611.50;4953584;28;20046;-69
2022/07/09 07:48:41;;;;;;;10.82;8.02;;;;;;;25.29;64.66;102625.03;4969006;28;20062;-69
2022/07/09 07:51:07;;;;;;;13.27;8.15;;;;;;;24.92;65.55;102614.06;4956171;28;20614;-70
2022/07/09 07:53:33;;;;;;;13.88;8.20;;;;;;;25.15;67.49;102619.19;4961769;28;20046;-70
2022/07/09 07:56:00;;;;;;;13.80;7.47;;;;;;;25.07;66.49;102613.63;4964928;28;20038;-70
2022/07/09 07:58:26;;;;;;;12.05;7.53;;;;;;;25.02;64.81;102614.91;4968984;28;20794;-70
2022/07/09 08:00:51;;;;;;;10.25;6.40;;;;;;;24.52;65.75;102612.44;4952371;28;20046;-70
2022/07/09 08:03:17;;;;;;;11.95;5.95;;;;;;;25.40;63.31;102602.09;4951680;28;20786;-69
2022/07/09 08:05:42;;;;;;;9.43;5.75;;;;;;;25.89;62.03;102599.97;4962770;28;20046;-70
2022/07/09 08:08:08;;;;;;;8.90;5.88;;;;;;;25.44;63.41;102597.22;4957936;28;20039;-69
2022/07/09 08:10:33;;;;;;;6.18;4.60;;;;;;;25.93;59.94;102593.19;4954412;28;20043;-69
2022/07/09 08:12:59;;;;;;;7.60;4.43;;;;;;;26.56;58.79;102595.00;4967339;28;20033;-70
2022/07/09 08:15:24;;;;;;;7.50;5.15;;;;;;;25.81;60.58;102595.31;4961258;28;20857;-68
2022/07/09 08:17:50;;;;;;;6.88;4.20;;;;;;;25.66;59.88;102588.63;4973091;28;20048;-69
2022/07/09 08:20:15;;;;;;;6.38;3.63;;;;;;;26.71;57.84;102574.22;4956785;28;20058;-69
2022/07/09 08:22:41;;;;;;;5.57;4.20;;;;;;;25.91;59.39;102586.19;4969187;28;20046;-69
2022/07/09 08:25:07;;;;;;;8.38;4.38;;;;;;;25.82;61.42;102579.75;4964353;28;20050;-71
2022/07/09 08:27:32;;;;;;;4.80;3.85;;;;;;;25.99;59.75;102578.88;4964520;28;20150;-70
2022/07/09 08:29:57;;;;;;;8.60;3.83;;;;;;;25.68;62.16;102577.53;4970653;28;20078;-72
2022/07/09 08:32:23;;;;;;;5.57;3.88;;;;;;;25.51;62.35;102587.41;4970804;28;20072;-70
2022/07/09 08:34:48;;;;;;;5.38;4.47;;;;;;;25.00;62.07;102586.91;4966839;28;20039;-69
2022/07/09 08:37:14;;;;;;;8.05;4.25;;;;;;;25.36;62.89;102583.47;4952288;28;20065;-71
2022/07/09 08:39:39;;;;;;;7.28;4.40;;;;;;;24.71;61.67;102592.44;4951934;28;20042;-69
2022/07/09 08:42:10;;;;;;;5.97;4.60;;;;;;;25.13;62.77;102583.00;4961637;28;20022;-70
2022/07/09 08:44:38;;;;;;;7.53;5.10;;;;;;;25.05;63.48;102584.59;4968723;28;20073;-70
2022/07/09 08:47:04;;;;;;;13.73;5.07;;;;;;;24.93;64.26;102574.84;4964070;28;20765;-70
2022/07/09 08:49:31;;;;;;;6.57;4.15;;;;;;;25.13;64.09;102572.06;4959536;28;20038;-70
2022/07/09 08:51:57;;;;;;;6.85;4.50;;;;;;;25.22;61.82;102579.38;4957294;28;20031;-69
2022/07/09 08:54:23;;;;;;;12.93;5.30;;;;;;;24.91;61.96;102574.16;4983340;23;20033;-71
2022/07/09 08:56:52;;;;;;;15.82;5.55;;;;;;;25.34;60.92;102571.81;4997613;23;20046;-64
2022/07/09 08:59:18;;;;;;;6.57;4.95;;;;;;;25.79;62.20;102574.59;4972402;28;20104;-64
2022/07/09 09:01:43;;;;;;;7.55;4.47;;;;;;;25.89;60.76;102567.16;4986244;28;20037;-64
2022/07/09 09:04:09;;;;;;;9.05;5.68;;;;;;;25.56;61.68;102568.69;4974925;28;20552;-64
2022/07/09 09:06:39;;;;;;;5.85;4.95;;;;;;;24.71;62.00;102567.03;4968597;28;20994;-64
2022/07/09 09:09:07;;;;;;;8.35;4.75;;;;;;;24.77;63.30;102559.09;4970222;28;20171;-63
2022/07/09 09:11:35;;;;;;;7.03;5.03;;;;;;;24.69;63.42;102567.16;4975597;28;20038;-64
2022/07/09 09:14:00;;;;;;;13.88;5.07;;;;;;;24.35;64.69;102558.59;4976845;28;20046;-63
2022/07/09 09:16:26;;;;;;;6.47;4.90;;;;;;;24.39;65.30;102567.34;4967513;28;20193;-64
2022/07/09 09:18:52;;;;;;;9.13;5.65;;;;;;;24.29;63.40;102560.00;4984172;28;20218;-64
2022/07/09 09:21:22;;;;;;;10.50;5.15;;;;;;;25.09;62.56;102555.13;4978854;28;20045;-63
2022/07/09 09:23:48;;;;;;;6.00;4.80;;;;;;;25.06;60.91;102549.94;4979465;28;20029;-64
2022/07/09 09:26:22;;;;;;;7.85;4.82;;;;;;;24.35;63.31;102561.31;4982123;28;21009;-63
2022/07/09 09:28:52;;;;;;;9.25;5.00;;;;;;;24.23;66.14;102557.00;4970890;28;20053;-64
2022/07/09 09:31:26;;;;;;;8.68;5.05;;;;;;;24.38;65.23;102560.19;4979759;28;20042;-64
2022/07/09 09:34:12;;;;;;;5.43;3.88;;;;;;;24.36;64.77;102562.22;4968007;28;20069;-64
2022/07/09 09:36:40;;;;;;;7.20;3.97;;;;;;;24.08;64.57;102558.47;4986193;28;20048;-66
2022/07/09 09:39:20;;;;;;;7.13;5.10;;;;;;;23.75;66.25;102563.34;4985135;28;20050;-64
2022/07/09 09:41:47;;;;;;;8.05;5.05;;;;;;;23.12;67.68;102570.84;4974459;28;20046;-64
2022/07/09 09:44:18;;;;;;;7.95;5.07;;;;;;;23.50;67.38;102562.81;4980089;28;20607;-63
2022/07/09 09:46:45;;;;;;;9.80;4.72;;;;;;;23.32;68.73;102569.91;4968423;28;20134;-64
2022/07/09 09:49:14;;;;;;;11.02;5.35;;;;;;;22.83;69.05;102578.84;4965317;28;20034;-64
2022/07/09 09:51:56;;;;;;;11.10;6.50;;;;;;;22.62;69.89;102579.72;4977166;28;20042;-66
2022/07/09 09:54:22;;;;;;;7.93;6.20;;;;;;;22.71;69.57;102581.66;4972758;28;20804;-66
2022/07/09 09:56:51;;;;;;;8.20;6.43;;;;;;;23.43;68.41;102574.41;4986513;28;20077;-65
2022/07/09 09:59:17;;;;;;;10.73;6.68;;;;;;;23.65;68.99;102581.53;4980480;28;20061;-66
2022/07/09 10:01:44;;;;;;;18.55;8.85;;;;;;;23.64;67.92;102579.78;4970601;28;20550;-65
2022/07/09 10:04:11;;;;;;;14.50;8.45;;;;;;;24.28;65.86;102571.06;4984810;28;20049;-64
2022/07/09 10:06:37;;;;;;;10.68;7.88;;;;;;;24.45;65.19;102572.22;4974276;28;20145;-64
2022/07/09 10:09:04;;;;;;;12.75;8.95;;;;;;;24.43;64.69;102585.16;4983815;28;20519;-64
2022/07/09 10:11:41;;;;;;;12.95;9.13;;;;;;;24.29;66.11;102570.06;4978435;28;20045;-64
2022/07/09 10:14:07;;;;;;;14.40;9.23;;;;;;;24.49;65.19;102571.78;4974803;28;20073;-62
2022/07/09 10:16:38;;;;;;;13.02;9.90;;;;;;;24.78;63.79;102582.63;4969893;28;20100;-65
2022/07/09 10:19:04;;;;;;;12.82;9.45;;;;;;;24.77;62.87;102571.88;4981367;28;20046;-65
2022/07/09 10:21:40;;;;;;;12.18;10.43;;;;;;;25.64;61.81;102566.03;4971937;28;20116;-64
2022/07/09 10:24:08;;;;;;;16.42;9.45;;;;;;;25.20;62.17;102570.44;4987018;28;20048;-63
2022/07/09 10:26:42;;;;;;;11.32;8.80;;;;;;;25.10;63.13;102567.75;4971067;28;20838;-64
2022/07/09 10:29:23;;;;;;;12.48;8.48;;;;;;;25.08;62.66;102563.47;4987408;28;20046;-65
2022/07/09 10:31:49;;;;;;;11.60;9.63;;;;;;;24.53;65.15;102567.75;4976582;28;20096;-66
2022/07/09 10:34:44;;;;;;;10.77;9.27;;;;;;;23.73;66.79;102568.91;4982474;28;20049;-65
2022/07/09 10:37:10;;;;;;;8.73;6.82;;;;;;;24.93;63.28;102566.66;4974340;28;20046;-63
2022/07/09 10:39:36;;;;;;;8.93;6.18;;;;;;;24.13;64.60;102569.78;4976934;28;20155;-65
2022/07/09 10:42:23;;;;;;;8.43;5.90;;;;;;;24.03;65.20;102562.47;4973965;28;20038;-63
2022/07/09 10:44:53;;;;;;;6.90;4.03;;;;;;;24.22;65.60;102571.66;4983935;28;20050;-66
2022/07/09 10:47:19;;;;;;;13.18;5.50;;;;;;;24.20;62.39;102560.91;4974801;28;20858;-66
2022/07/09 10:49:45;;;;;;;5.38;3.85;;;;;;;24.43;63.56;102561.47;4978692;28;20047;-65
2022/07/09 10:52:10;;;;;;;3.78;2.35;;;;;;;24.48;62.41;102559.16;4969400;28;20870;-63
2022/07/09 10:54:45;;;;;;;3.75;2.47;;;;;;;25.75;59.44;102548.56;4971440;28;20031;-64
2022/07/09 10:57:13;;;;;;;6.03;2.67;;;;;;;25.15;60.21;102556.38;4984878;28;21074;-66
2022/07/09 10:59:38;;;;;;;3.33;2.58;;;;;;;24.88;61.86;102551.75;4981056;28;20035;-65
2022/07/09 11:02:04;;;;;;;5.80;3.05;;;;;;;24.37;63.59;102562.06;4984579;28;20104;-64
2022/07/09 11:04:31;;;;;;;5.45;3.13;;;;;;;24.61;62.40;102553.41;4976770;28;20081;-63
2022/07/09 11:06:57;;;;;;;3.95;3.03;;;;;;;24.35;67.36;102552.25;4973510;28;20135;-66
2022/07/09 11:09:29;;;;;;;7.50;3.00;;;;;;;24.49;62.70;102555.41;4977209;28;20053;-63
2022/07/09 11:11:54;;;;;;;2.97;2.60;;;;;;;24.79;62.09;102557.06;4970614;28;20042;-63